sensor_id;sensor_type;location;lat;lon;timestamp;P1;durP1;ratioP1;P2;durP2;ratioP2
18997;SDS011;9632;51.018;4.284;2023-05-18T00:02:01;10.35;;;2.38;;
18997;SDS011;9632;51.018;4.284;2023-05-18T00:04:29;15.43;;;2.40;;
18997;SDS011;9632;51.018;4.284;2023-05-18T00:06:56;12.40;;;2.00;;
18997;SDS011;9632;51.018;4.284;2023-05-18T00:09:25;8.80;;;2.05;;
18997;SDS011;9632;51.018;4.284;2023-05-18T00:11:51;9.98;;;2.13;;
18997;SDS011;9632;51.018;4.284;2023-05-18T00:14:18;5.70;;;1.77;;
18997;SDS011;9632;51.018;4.284;2023-05-18T00:16:44;6.70;;;1.65;;
18997;SDS011;9632;51.018;4.284;2023-05-18T00:19:10;10.23;;;1.60;;
18997;SDS011;9632;51.018;4.284;2023-05-18T00:21:38;12.00;;;2.30;;
18997;SDS011;9632;51.018;4.284;2023-05-18T00:24:06;10.77;;;2.10;;
18997;SDS011;9632;51.018;4.284;2023-05-18T00:26:32;6.85;;;1.70;;
18997;SDS011;9632;51.018;4.284;2023-05-18T00:28:57;8.60;;;1.73;;
18997;SDS011;9632;51.018;4.284;2023-05-18T00:31:23;11.80;;;1.83;;
18997;SDS011;9632;51.018;4.284;2023-05-18T00:33:49;12.10;;;2.30;;
18997;SDS011;9632;51.018;4.284;2023-05-18T00:36:14;5.22;;;1.58;;
18997;SDS011;9632;51.018;4.284;2023-05-18T00:38:40;11.73;;;1.88;;
18997;SDS011;9632;51.018;4.284;2023-05-18T00:41:06;8.80;;;1.85;;
18997;SDS011;9632;51.018;4.284;2023-05-18T00:43:31;8.57;;;2.10;;
18997;SDS011;9632;51.018;4.284;2023-05-18T00:45:57;12.57;;;1.80;;
18997;SDS011;9632;51.018;4.284;2023-05-18T00:48:22;11.27;;;1.80;;
18997;SDS011;9632;51.018;4.284;2023-05-18T00:50:48;10.77;;;2.20;;
18997;SDS011;9632;51.018;4.284;2023-05-18T00:53:14;14.20;;;2.40;;
18997;SDS011;9632;51.018;4.284;2023-05-18T00:55:40;15.02;;;2.17;;
18997;SDS011;9632;51.018;4.284;2023-05-18T00:58:06;8.25;;;2.00;;
18997;SDS011;9632;51.018;4.284;2023-05-18T01:00:32;8.30;;;2.00;;
18997;SDS011;9632;51.018;4.284;2023-05-18T01:03:01;10.73;;;2.28;;
18997;SDS011;9632;51.018;4.284;2023-05-18T01:05:28;9.45;;;2.10;;
18997;SDS011;9632;51.018;4.284;2023-05-18T01:07:53;7.78;;;2.30;;
18997;SDS011;9632;51.018;4.284;2023-05-18T01:10:20;10.48;;;2.17;;
18997;SDS011;9632;51.018;4.284;2023-05-18T01:12:56;10.48;;;2.20;;
18997;SDS011;9632;51.018;4.284;2023-05-18T01:15:31;9.65;;;2.05;;
18997;SDS011;9632;51.018;4.284;2023-05-18T01:18:11;10.15;;;2.15;;
18997;SDS011;9632;51.018;4.284;2023-05-18T01:20:46;6.95;;;1.63;;
18997;SDS011;9632;51.018;4.284;2023-05-18T01:26:33;7.85;;;1.98;;
18997;SDS011;9632;51.018;4.284;2023-05-18T01:29:05;9.23;;;2.30;;
18997;SDS011;9632;51.018;4.284;2023-05-18T01:31:33;10.27;;;1.70;;
18997;SDS011;9632;51.018;4.284;2023-05-18T01:33:59;5.78;;;1.75;;
18997;SDS011;9632;51.018;4.284;2023-05-18T01:36:25;12.57;;;2.10;;
18997;SDS011;9632;51.018;4.284;2023-05-18T01:38:51;11.02;;;1.73;;
18997;SDS011;9632;51.018;4.284;2023-05-18T01:41:24;6.80;;;1.80;;
18997;SDS011;9632;51.018;4.284;2023-05-18T01:49:26;10.70;;;2.30;;
18997;SDS011;9632;51.018;4.284;2023-05-18T01:52:18;7.43;;;1.92;;
18997;SDS011;9632;51.018;4.284;2023-05-18T01:54:49;6.75;;;1.90;;
18997;SDS011;9632;51.018;4.284;2023-05-18T01:57:18;7.25;;;1.80;;
18997;SDS011;9632;51.018;4.284;2023-05-18T01:59:47;6.45;;;1.90;;
18997;SDS011;9632;51.018;4.284;2023-05-18T02:02:15;10.23;;;2.50;;
18997;SDS011;9632;51.018;4.284;2023-05-18T02:04:41;11.40;;;2.38;;
18997;SDS011;9632;51.018;4.284;2023-05-18T02:07:07;9.60;;;2.40;;
18997;SDS011;9632;51.018;4.284;2023-05-18T02:09:33;7.28;;;1.95;;
18997;SDS011;9632;51.018;4.284;2023-05-18T02:11:58;10.07;;;2.20;;
18997;SDS011;9632;51.018;4.284;2023-05-18T02:14:24;9.45;;;2.30;;
18997;SDS011;9632;51.018;4.284;2023-05-18T02:16:50;9.07;;;2.28;;
18997;SDS011;9632;51.018;4.284;2023-05-18T02:19:17;10.45;;;2.25;;
18997;SDS011;9632;51.018;4.284;2023-05-18T02:21:46;8.82;;;2.45;;
18997;SDS011;9632;51.018;4.284;2023-05-18T02:24:12;11.48;;;2.30;;
18997;SDS011;9632;51.018;4.284;2023-05-18T02:26:38;8.20;;;2.10;;
18997;SDS011;9632;51.018;4.284;2023-05-18T02:29:04;9.68;;;2.67;;
18997;SDS011;9632;51.018;4.284;2023-05-18T02:31:30;10.10;;;1.95;;
18997;SDS011;9632;51.018;4.284;2023-05-18T02:33:56;7.75;;;1.90;;
18997;SDS011;9632;51.018;4.284;2023-05-18T02:36:22;8.27;;;2.00;;
18997;SDS011;9632;51.018;4.284;2023-05-18T02:38:48;8.23;;;2.47;;
18997;SDS011;9632;51.018;4.284;2023-05-18T02:41:13;8.10;;;2.20;;
18997;SDS011;9632;51.018;4.284;2023-05-18T02:43:39;7.43;;;1.90;;
18997;SDS011;9632;51.018;4.284;2023-05-18T02:46:05;8.10;;;1.83;;
18997;SDS011;9632;51.018;4.284;2023-05-18T02:48:31;10.82;;;2.08;;
18997;SDS011;9632;51.018;4.284;2023-05-18T02:50:57;7.38;;;2.30;;
18997;SDS011;9632;51.018;4.284;2023-05-18T02:53:23;7.35;;;2.20;;
18997;SDS011;9632;51.018;4.284;2023-05-18T02:55:52;8.13;;;2.50;;
18997;SDS011;9632;51.018;4.284;2023-05-18T02:58:21;10.20;;;2.28;;
18997;SDS011;9632;51.018;4.284;2023-05-18T03:00:49;6.82;;;2.17;;
18997;SDS011;9632;51.018;4.284;2023-05-18T03:03:17;9.75;;;2.50;;
18997;SDS011;9632;51.018;4.284;2023-05-18T03:05:43;8.75;;;2.30;;
18997;SDS011;9632;51.018;4.284;2023-05-18T03:08:08;5.43;;;2.08;;
18997;SDS011;9632;51.018;4.284;2023-05-18T03:10:34;8.07;;;2.13;;
18997;SDS011;9632;51.018;4.284;2023-05-18T03:13:01;9.60;;;2.30;;
18997;SDS011;9632;51.018;4.284;2023-05-18T03:15:27;8.15;;;2.30;;
18997;SDS011;9632;51.018;4.284;2023-05-18T03:17:55;9.55;;;2.30;;
18997;SDS011;9632;51.018;4.284;2023-05-18T03:20:23;7.18;;;2.05;;
18997;SDS011;9632;51.018;4.284;2023-05-18T03:22:50;8.75;;;2.08;;
18997;SDS011;9632;51.018;4.284;2023-05-18T03:25:16;7.85;;;2.22;;
18997;SDS011;9632;51.018;4.284;2023-05-18T03:27:42;8.30;;;2.15;;
18997;SDS011;9632;51.018;4.284;2023-05-18T03:30:07;12.55;;;2.40;;
18997;SDS011;9632;51.018;4.284;2023-05-18T03:32:33;12.25;;;2.20;;
18997;SDS011;9632;51.018;4.284;2023-05-18T03:35:01;6.75;;;2.20;;
18997;SDS011;9632;51.018;4.284;2023-05-18T03:37:27;10.73;;;2.22;;
18997;SDS011;9632;51.018;4.284;2023-05-18T03:39:53;10.57;;;2.50;;
18997;SDS011;9632;51.018;4.284;2023-05-18T03:42:19;10.32;;;2.40;;
18997;SDS011;9632;51.018;4.284;2023-05-18T03:44:45;9.95;;;2.60;;
18997;SDS011;9632;51.018;4.284;2023-05-18T03:47:11;7.38;;;2.30;;
18997;SDS011;9632;51.018;4.284;2023-05-18T03:49:36;8.35;;;2.50;;
18997;SDS011;9632;51.018;4.284;2023-05-18T03:52:02;10.48;;;2.60;;
18997;SDS011;9632;51.018;4.284;2023-05-18T03:54:28;11.10;;;2.40;;
18997;SDS011;9632;51.018;4.284;2023-05-18T03:56:54;8.52;;;2.25;;
18997;SDS011;9632;51.018;4.284;2023-05-18T03:59:20;10.18;;;2.35;;
18997;SDS011;9632;51.018;4.284;2023-05-18T04:01:45;9.25;;;2.28;;
18997;SDS011;9632;51.018;4.284;2023-05-18T04:04:11;7.18;;;2.85;;
18997;SDS011;9632;51.018;4.284;2023-05-18T04:06:42;8.35;;;2.50;;
18997;SDS011;9632;51.018;4.284;2023-05-18T04:09:10;5.53;;;2.10;;
18997;SDS011;9632;51.018;4.284;2023-05-18T04:11:41;7.78;;;2.15;;
18997;SDS011;9632;51.018;4.284;2023-05-18T04:14:07;9.15;;;2.67;;
18997;SDS011;9632;51.018;4.284;2023-05-18T04:16:33;6.85;;;2.20;;
18997;SDS011;9632;51.018;4.284;2023-05-18T04:18:59;8.95;;;2.40;;
18997;SDS011;9632;51.018;4.284;2023-05-18T04:21:25;7.38;;;1.95;;
18997;SDS011;9632;51.018;4.284;2023-05-18T04:23:51;9.88;;;2.30;;
18997;SDS011;9632;51.018;4.284;2023-05-18T04:26:17;7.13;;;2.00;;
18997;SDS011;9632;51.018;4.284;2023-05-18T04:28:47;7.72;;;2.22;;
18997;SDS011;9632;51.018;4.284;2023-05-18T04:31:13;7.47;;;2.22;;
18997;SDS011;9632;51.018;4.284;2023-05-18T04:33:44;7.60;;;2.05;;
18997;SDS011;9632;51.018;4.284;2023-05-18T04:36:11;10.48;;;2.40;;
18997;SDS011;9632;51.018;4.284;2023-05-18T04:38:36;10.32;;;2.83;;
18997;SDS011;9632;51.018;4.284;2023-05-18T04:41:03;8.68;;;2.40;;
18997;SDS011;9632;51.018;4.284;2023-05-18T04:43:31;7.95;;;2.63;;
18997;SDS011;9632;51.018;4.284;2023-05-18T04:45:57;7.43;;;2.15;;
18997;SDS011;9632;51.018;4.284;2023-05-18T04:48:23;9.73;;;2.60;;
18997;SDS011;9632;51.018;4.284;2023-05-18T04:50:50;7.90;;;2.38;;
18997;SDS011;9632;51.018;4.284;2023-05-18T04:53:18;5.55;;;2.10;;
18997;SDS011;9632;51.018;4.284;2023-05-18T04:55:45;9.88;;;2.50;;
18997;SDS011;9632;51.018;4.284;2023-05-18T04:58:14;6.55;;;2.40;;
18997;SDS011;9632;51.018;4.284;2023-05-18T05:00:40;6.45;;;2.25;;
18997;SDS011;9632;51.018;4.284;2023-05-18T05:03:07;7.43;;;2.42;;
18997;SDS011;9632;51.018;4.284;2023-05-18T05:05:32;10.50;;;2.50;;
18997;SDS011;9632;51.018;4.284;2023-05-18T05:07:59;10.00;;;2.42;;
18997;SDS011;9632;51.018;4.284;2023-05-18T05:10:24;10.18;;;2.75;;
18997;SDS011;9632;51.018;4.284;2023-05-18T05:12:52;14.55;;;2.88;;
18997;SDS011;9632;51.018;4.284;2023-05-18T05:15:18;16.17;;;2.97;;
18997;SDS011;9632;51.018;4.284;2023-05-18T05:17:47;9.10;;;2.35;;
18997;SDS011;9632;51.018;4.284;2023-05-18T05:20:13;8.48;;;2.67;;
18997;SDS011;9632;51.018;4.284;2023-05-18T05:22:40;8.25;;;2.65;;
18997;SDS011;9632;51.018;4.284;2023-05-18T05:25:06;10.15;;;2.50;;
18997;SDS011;9632;51.018;4.284;2023-05-18T05:27:32;9.10;;;2.35;;
18997;SDS011;9632;51.018;4.284;2023-05-18T05:29:57;8.50;;;2.65;;
18997;SDS011;9632;51.018;4.284;2023-05-18T05:32:23;11.52;;;2.90;;
18997;SDS011;9632;51.018;4.284;2023-05-18T05:34:49;15.32;;;2.80;;
18997;SDS011;9632;51.018;4.284;2023-05-18T05:37:16;15.98;;;3.10;;
18997;SDS011;9632;51.018;4.284;2023-05-18T05:39:42;9.30;;;2.78;;
18997;SDS011;9632;51.018;4.284;2023-05-18T05:42:08;9.00;;;2.53;;
18997;SDS011;9632;51.018;4.284;2023-05-18T05:44:34;7.93;;;2.30;;
18997;SDS011;9632;51.018;4.284;2023-05-18T05:47:00;8.95;;;2.33;;
18997;SDS011;9632;51.018;4.284;2023-05-18T05:49:26;11.30;;;2.65;;
18997;SDS011;9632;51.018;4.284;2023-05-18T05:51:52;12.60;;;2.63;;
18997;SDS011;9632;51.018;4.284;2023-05-18T05:54:17;10.32;;;3.10;;
18997;SDS011;9632;51.018;4.284;2023-05-18T05:56:43;14.70;;;3.40;;
18997;SDS011;9632;51.018;4.284;2023-05-18T05:59:09;9.95;;;3.10;;
18997;SDS011;9632;51.018;4.284;2023-05-18T06:01:34;10.40;;;3.17;;
18997;SDS011;9632;51.018;4.284;2023-05-18T06:04:01;9.23;;;2.90;;
18997;SDS011;9632;51.018;4.284;2023-05-18T06:06:29;10.10;;;3.35;;
18997;SDS011;9632;51.018;4.284;2023-05-18T06:08:55;12.82;;;2.67;;
18997;SDS011;9632;51.018;4.284;2023-05-18T06:11:20;8.88;;;2.92;;
18997;SDS011;9632;51.018;4.284;2023-05-18T06:13:46;7.63;;;2.53;;
18997;SDS011;9632;51.018;4.284;2023-05-18T06:16:12;10.10;;;2.75;;
18997;SDS011;9632;51.018;4.284;2023-05-18T06:18:37;9.70;;;2.63;;
18997;SDS011;9632;51.018;4.284;2023-05-18T06:21:03;9.02;;;3.00;;
18997;SDS011;9632;51.018;4.284;2023-05-18T06:23:29;11.77;;;3.40;;
18997;SDS011;9632;51.018;4.284;2023-05-18T06:25:55;12.40;;;3.35;;
18997;SDS011;9632;51.018;4.284;2023-05-18T06:28:20;10.60;;;3.13;;
18997;SDS011;9632;51.018;4.284;2023-05-18T06:30:46;18.67;;;3.80;;
18997;SDS011;9632;51.018;4.284;2023-05-18T06:33:12;14.25;;;3.42;;
18997;SDS011;9632;51.018;4.284;2023-05-18T06:35:38;14.43;;;3.70;;
18997;SDS011;9632;51.018;4.284;2023-05-18T06:38:05;17.70;;;3.63;;
18997;SDS011;9632;51.018;4.284;2023-05-18T06:40:30;12.43;;;3.75;;
18997;SDS011;9632;51.018;4.284;2023-05-18T06:42:57;22.05;;;3.90;;
18997;SDS011;9632;51.018;4.284;2023-05-18T06:45:22;17.23;;;4.07;;
18997;SDS011;9632;51.018;4.284;2023-05-18T06:47:48;11.25;;;3.60;;
18997;SDS011;9632;51.018;4.284;2023-05-18T06:50:14;14.35;;;3.83;;
18997;SDS011;9632;51.018;4.284;2023-05-18T06:52:39;16.77;;;3.95;;
18997;SDS011;9632;51.018;4.284;2023-05-18T06:55:05;13.48;;;3.80;;
18997;SDS011;9632;51.018;4.284;2023-05-18T06:57:31;8.98;;;3.90;;
18997;SDS011;9632;51.018;4.284;2023-05-18T06:59:57;14.77;;;3.65;;
18997;SDS011;9632;51.018;4.284;2023-05-18T07:02:23;15.57;;;3.88;;
18997;SDS011;9632;51.018;4.284;2023-05-18T07:04:49;14.73;;;3.80;;
18997;SDS011;9632;51.018;4.284;2023-05-18T07:07:14;14.15;;;4.35;;
18997;SDS011;9632;51.018;4.284;2023-05-18T07:09:43;10.38;;;3.83;;
18997;SDS011;9632;51.018;4.284;2023-05-18T07:12:10;19.48;;;3.95;;
18997;SDS011;9632;51.018;4.284;2023-05-18T07:14:38;14.77;;;3.83;;
18997;SDS011;9632;51.018;4.284;2023-05-18T07:17:04;13.05;;;3.80;;
18997;SDS011;9632;51.018;4.284;2023-05-18T07:19:31;16.67;;;4.13;;
18997;SDS011;9632;51.018;4.284;2023-05-18T07:21:57;13.18;;;4.03;;
18997;SDS011;9632;51.018;4.284;2023-05-18T07:24:23;16.05;;;4.20;;
18997;SDS011;9632;51.018;4.284;2023-05-18T07:26:49;16.23;;;4.13;;
18997;SDS011;9632;51.018;4.284;2023-05-18T07:29:15;18.10;;;4.38;;
18997;SDS011;9632;51.018;4.284;2023-05-18T07:31:40;12.10;;;3.53;;
18997;SDS011;9632;51.018;4.284;2023-05-18T07:34:06;16.33;;;4.15;;
18997;SDS011;9632;51.018;4.284;2023-05-18T07:36:32;13.75;;;4.00;;
18997;SDS011;9632;51.018;4.284;2023-05-18T07:38:58;15.32;;;3.90;;
18997;SDS011;9632;51.018;4.284;2023-05-18T07:41:25;11.40;;;4.25;;
18997;SDS011;9632;51.018;4.284;2023-05-18T07:43:52;15.27;;;3.85;;
18997;SDS011;9632;51.018;4.284;2023-05-18T07:46:18;17.85;;;4.70;;
18997;SDS011;9632;51.018;4.284;2023-05-18T07:48:44;12.05;;;3.47;;
18997;SDS011;9632;51.018;4.284;2023-05-18T07:51:10;17.38;;;4.43;;
18997;SDS011;9632;51.018;4.284;2023-05-18T07:53:36;9.80;;;3.70;;
18997;SDS011;9632;51.018;4.284;2023-05-18T07:56:03;10.85;;;3.53;;
18997;SDS011;9632;51.018;4.284;2023-05-18T07:58:29;8.88;;;3.70;;
18997;SDS011;9632;51.018;4.284;2023-05-18T08:00:55;14.48;;;3.60;;
18997;SDS011;9632;51.018;4.284;2023-05-18T08:03:21;13.63;;;3.80;;
18997;SDS011;9632;51.018;4.284;2023-05-18T08:05:46;15.82;;;3.95;;
18997;SDS011;9632;51.018;4.284;2023-05-18T08:08:12;13.75;;;3.67;;
18997;SDS011;9632;51.018;4.284;2023-05-18T08:10:39;13.30;;;3.90;;
18997;SDS011;9632;51.018;4.284;2023-05-18T08:13:05;15.20;;;3.75;;
18997;SDS011;9632;51.018;4.284;2023-05-18T08:15:31;12.07;;;3.90;;
18997;SDS011;9632;51.018;4.284;2023-05-18T08:17:58;12.35;;;3.38;;
18997;SDS011;9632;51.018;4.284;2023-05-18T08:20:24;11.57;;;3.90;;
18997;SDS011;9632;51.018;4.284;2023-05-18T08:22:50;14.57;;;3.85;;
18997;SDS011;9632;51.018;4.284;2023-05-18T08:25:15;10.77;;;3.40;;
18997;SDS011;9632;51.018;4.284;2023-05-18T08:27:41;15.82;;;3.70;;
18997;SDS011;9632;51.018;4.284;2023-05-18T08:30:07;9.85;;;3.38;;
18997;SDS011;9632;51.018;4.284;2023-05-18T08:32:33;14.70;;;3.97;;
18997;SDS011;9632;51.018;4.284;2023-05-18T08:35:01;13.88;;;3.35;;
18997;SDS011;9632;51.018;4.284;2023-05-18T08:37:30;12.05;;;3.60;;
18997;SDS011;9632;51.018;4.284;2023-05-18T08:39:56;12.55;;;3.80;;
18997;SDS011;9632;51.018;4.284;2023-05-18T08:42:33;10.63;;;3.40;;
18997;SDS011;9632;51.018;4.284;2023-05-18T08:47:56;21.08;;;3.92;;
18997;SDS011;9632;51.018;4.284;2023-05-18T08:50:24;14.18;;;3.88;;
18997;SDS011;9632;51.018;4.284;2023-05-18T08:52:53;10.80;;;3.70;;
18997;SDS011;9632;51.018;4.284;2023-05-18T08:55:19;11.55;;;3.30;;
18997;SDS011;9632;51.018;4.284;2023-05-18T08:57:48;11.85;;;3.70;;
18997;SDS011;9632;51.018;4.284;2023-05-18T09:00:20;16.23;;;4.22;;
18997;SDS011;9632;51.018;4.284;2023-05-18T09:02:46;15.70;;;3.95;;
18997;SDS011;9632;51.018;4.284;2023-05-18T09:05:12;17.98;;;4.00;;
18997;SDS011;9632;51.018;4.284;2023-05-18T09:07:39;16.13;;;3.45;;
18997;SDS011;9632;51.018;4.284;2023-05-18T09:10:07;12.98;;;3.10;;
18997;SDS011;9632;51.018;4.284;2023-05-18T09:12:34;14.98;;;3.38;;
18997;SDS011;9632;51.018;4.284;2023-05-18T09:15:00;11.18;;;3.00;;
18997;SDS011;9632;51.018;4.284;2023-05-18T09:17:27;12.77;;;3.25;;
18997;SDS011;9632;51.018;4.284;2023-05-18T09:19:53;17.65;;;3.85;;
18997;SDS011;9632;51.018;4.284;2023-05-18T09:22:19;12.35;;;2.70;;
18997;SDS011;9632;51.018;4.284;2023-05-18T09:24:44;13.77;;;3.10;;
18997;SDS011;9632;51.018;4.284;2023-05-18T09:27:10;16.65;;;3.42;;
18997;SDS011;9632;51.018;4.284;2023-05-18T09:29:36;10.90;;;2.60;;
18997;SDS011;9632;51.018;4.284;2023-05-18T09:32:19;9.65;;;2.55;;
18997;SDS011;9632;51.018;4.284;2023-05-18T09:34:48;13.90;;;2.92;;
18997;SDS011;9632;51.018;4.284;2023-05-18T09:37:15;10.20;;;2.50;;
18997;SDS011;9632;51.018;4.284;2023-05-18T09:39:41;12.73;;;2.70;;
18997;SDS011;9632;51.018;4.284;2023-05-18T09:42:07;9.95;;;2.40;;
18997;SDS011;9632;51.018;4.284;2023-05-18T09:44:33;10.27;;;2.67;;
18997;SDS011;9632;51.018;4.284;2023-05-18T09:46:59;12.88;;;3.28;;
18997;SDS011;9632;51.018;4.284;2023-05-18T09:49:27;13.65;;;3.38;;
18997;SDS011;9632;51.018;4.284;2023-05-18T09:51:55;11.73;;;2.67;;
18997;SDS011;9632;51.018;4.284;2023-05-18T09:54:21;14.30;;;2.92;;
18997;SDS011;9632;51.018;4.284;2023-05-18T09:56:47;10.30;;;2.78;;
18997;SDS011;9632;51.018;4.284;2023-05-18T09:59:13;13.27;;;3.05;;
18997;SDS011;9632;51.018;4.284;2023-05-18T10:02:01;13.93;;;3.00;;
18997;SDS011;9632;51.018;4.284;2023-05-18T10:04:42;13.68;;;3.10;;
18997;SDS011;9632;51.018;4.284;2023-05-18T10:07:12;10.50;;;2.45;;
18997;SDS011;9632;51.018;4.284;2023-05-18T10:09:39;14.18;;;2.95;;
18997;SDS011;9632;51.018;4.284;2023-05-18T10:12:13;14.70;;;3.00;;
18997;SDS011;9632;51.018;4.284;2023-05-18T10:14:40;14.10;;;2.85;;
18997;SDS011;9632;51.018;4.284;2023-05-18T10:17:07;14.57;;;3.20;;
18997;SDS011;9632;51.018;4.284;2023-05-18T10:19:39;15.40;;;2.95;;
18997;SDS011;9632;51.018;4.284;2023-05-18T10:22:06;12.63;;;2.70;;
18997;SDS011;9632;51.018;4.284;2023-05-18T10:24:34;11.18;;;2.90;;
18997;SDS011;9632;51.018;4.284;2023-05-18T10:27:06;11.60;;;2.88;;
18997;SDS011;9632;51.018;4.284;2023-05-18T10:29:36;9.05;;;2.55;;
18997;SDS011;9632;51.018;4.284;2023-05-18T10:32:03;14.55;;;2.75;;
18997;SDS011;9632;51.018;4.284;2023-05-18T10:34:32;13.00;;;2.53;;
18997;SDS011;9632;51.018;4.284;2023-05-18T10:37:00;17.88;;;2.83;;
18997;SDS011;9632;51.018;4.284;2023-05-18T10:39:29;11.57;;;2.75;;
18997;SDS011;9632;51.018;4.284;2023-05-18T10:41:58;11.05;;;2.70;;
18997;SDS011;9632;51.018;4.284;2023-05-18T10:44:26;9.32;;;2.70;;
18997;SDS011;9632;51.018;4.284;2023-05-18T10:46:52;17.02;;;2.78;;
18997;SDS011;9632;51.018;4.284;2023-05-18T10:49:20;14.40;;;3.25;;
18997;SDS011;9632;51.018;4.284;2023-05-18T10:51:49;18.75;;;3.05;;
18997;SDS011;9632;51.018;4.284;2023-05-18T10:54:19;15.85;;;2.70;;
18997;SDS011;9632;51.018;4.284;2023-05-18T10:56:48;14.30;;;3.00;;
18997;SDS011;9632;51.018;4.284;2023-05-18T10:59:15;15.63;;;2.97;;
18997;SDS011;9632;51.018;4.284;2023-05-18T11:01:42;11.80;;;2.83;;
18997;SDS011;9632;51.018;4.284;2023-05-18T11:04:10;12.75;;;3.17;;
18997;SDS011;9632;51.018;4.284;2023-05-18T11:06:36;12.75;;;3.00;;
18997;SDS011;9632;51.018;4.284;2023-05-18T11:09:02;10.50;;;2.92;;
18997;SDS011;9632;51.018;4.284;2023-05-18T11:11:27;13.45;;;3.30;;
18997;SDS011;9632;51.018;4.284;2023-05-18T11:13:58;8.00;;;2.78;;
18997;SDS011;9632;51.018;4.284;2023-05-18T11:16:32;15.15;;;3.03;;
18997;SDS011;9632;51.018;4.284;2023-05-18T11:19:07;15.20;;;3.40;;
18997;SDS011;9632;51.018;4.284;2023-05-18T11:26:46;11.85;;;3.55;;
18997;SDS011;9632;51.018;4.284;2023-05-18T11:29:21;12.68;;;3.50;;
18997;SDS011;9632;51.018;4.284;2023-05-18T11:31:52;17.10;;;3.78;;
18997;SDS011;9632;51.018;4.284;2023-05-18T11:37:03;14.02;;;3.78;;
18997;SDS011;9632;51.018;4.284;2023-05-18T11:39:29;13.98;;;3.60;;
18997;SDS011;9632;51.018;4.284;2023-05-18T11:41:59;11.60;;;3.28;;
18997;SDS011;9632;51.018;4.284;2023-05-18T11:44:26;11.48;;;3.42;;
18997;SDS011;9632;51.018;4.284;2023-05-18T11:47:02;19.52;;;3.90;;
18997;SDS011;9632;51.018;4.284;2023-05-18T11:49:51;22.10;;;4.65;;
18997;SDS011;9632;51.018;4.284;2023-05-18T11:52:18;10.77;;;3.13;;
18997;SDS011;9632;51.018;4.284;2023-05-18T11:54:48;14.63;;;4.18;;
18997;SDS011;9632;51.018;4.284;2023-05-18T11:57:15;10.93;;;3.83;;
18997;SDS011;9632;51.018;4.284;2023-05-18T12:02:09;11.55;;;4.05;;
18997;SDS011;9632;51.018;4.284;2023-05-18T12:04:43;10.60;;;3.10;;
18997;SDS011;9632;51.018;4.284;2023-05-18T12:07:11;18.98;;;4.40;;
18997;SDS011;9632;51.018;4.284;2023-05-18T12:09:41;11.30;;;3.63;;
18997;SDS011;9632;51.018;4.284;2023-05-18T12:12:08;13.93;;;4.07;;
18997;SDS011;9632;51.018;4.284;2023-05-18T12:14:35;13.90;;;3.67;;
18997;SDS011;9632;51.018;4.284;2023-05-18T12:17:03;15.77;;;3.50;;
18997;SDS011;9632;51.018;4.284;2023-05-18T12:19:29;15.20;;;3.60;;
18997;SDS011;9632;51.018;4.284;2023-05-18T12:22:00;21.27;;;4.28;;
18997;SDS011;9632;51.018;4.284;2023-05-18T12:24:27;13.48;;;3.95;;
18997;SDS011;9632;51.018;4.284;2023-05-18T12:26:53;12.98;;;3.60;;
18997;SDS011;9632;51.018;4.284;2023-05-18T12:29:19;12.38;;;3.70;;
18997;SDS011;9632;51.018;4.284;2023-05-18T12:31:46;15.38;;;3.63;;
18997;SDS011;9632;51.018;4.284;2023-05-18T12:34:13;12.35;;;3.53;;
18997;SDS011;9632;51.018;4.284;2023-05-18T12:36:51;12.70;;;3.90;;
18997;SDS011;9632;51.018;4.284;2023-05-18T12:39:18;14.73;;;3.83;;
18997;SDS011;9632;51.018;4.284;2023-05-18T12:41:45;14.10;;;3.67;;
18997;SDS011;9632;51.018;4.284;2023-05-18T12:44:11;12.98;;;3.85;;
18997;SDS011;9632;51.018;4.284;2023-05-18T12:46:37;11.02;;;3.25;;
18997;SDS011;9632;51.018;4.284;2023-05-18T12:49:03;13.18;;;3.72;;
18997;SDS011;9632;51.018;4.284;2023-05-18T12:51:33;12.27;;;3.40;;
18997;SDS011;9632;51.018;4.284;2023-05-18T12:54:03;13.63;;;3.75;;
18997;SDS011;9632;51.018;4.284;2023-05-18T12:59:25;12.15;;;3.33;;
18997;SDS011;9632;51.018;4.284;2023-05-18T13:01:54;13.52;;;3.45;;
18997;SDS011;9632;51.018;4.284;2023-05-18T13:04:20;11.65;;;3.28;;
18997;SDS011;9632;51.018;4.284;2023-05-18T13:06:46;13.63;;;3.67;;
18997;SDS011;9632;51.018;4.284;2023-05-18T13:09:13;13.20;;;3.58;;
18997;SDS011;9632;51.018;4.284;2023-05-18T13:11:39;13.05;;;3.28;;
18997;SDS011;9632;51.018;4.284;2023-05-18T13:14:10;12.88;;;3.70;;
18997;SDS011;9632;51.018;4.284;2023-05-18T13:16:40;11.80;;;3.30;;
18997;SDS011;9632;51.018;4.284;2023-05-18T13:19:09;8.90;;;3.40;;
18997;SDS011;9632;51.018;4.284;2023-05-18T13:21:35;14.90;;;3.47;;
18997;SDS011;9632;51.018;4.284;2023-05-18T13:24:01;15.27;;;3.40;;
18997;SDS011;9632;51.018;4.284;2023-05-18T13:26:28;11.35;;;3.47;;
18997;SDS011;9632;51.018;4.284;2023-05-18T13:28:55;11.55;;;3.40;;
18997;SDS011;9632;51.018;4.284;2023-05-18T13:31:22;12.70;;;3.45;;
18997;SDS011;9632;51.018;4.284;2023-05-18T13:33:48;8.77;;;3.10;;
18997;SDS011;9632;51.018;4.284;2023-05-18T13:36:14;9.10;;;2.72;;
18997;SDS011;9632;51.018;4.284;2023-05-18T13:38:41;14.18;;;3.40;;
18997;SDS011;9632;51.018;4.284;2023-05-18T13:41:08;8.52;;;2.80;;
18997;SDS011;9632;51.018;4.284;2023-05-18T13:43:35;7.45;;;2.42;;
18997;SDS011;9632;51.018;4.284;2023-05-18T13:46:01;9.98;;;3.00;;
18997;SDS011;9632;51.018;4.284;2023-05-18T13:48:28;11.75;;;2.95;;
18997;SDS011;9632;51.018;4.284;2023-05-18T13:50:54;9.90;;;2.90;;
18997;SDS011;9632;51.018;4.284;2023-05-18T13:53:20;13.75;;;3.17;;
18997;SDS011;9632;51.018;4.284;2023-05-18T13:55:47;9.90;;;2.65;;
18997;SDS011;9632;51.018;4.284;2023-05-18T13:58:13;11.63;;;3.20;;
18997;SDS011;9632;51.018;4.284;2023-05-18T14:00:39;14.25;;;3.20;;
18997;SDS011;9632;51.018;4.284;2023-05-18T14:03:05;7.47;;;2.90;;
18997;SDS011;9632;51.018;4.284;2023-05-18T14:05:31;12.93;;;2.90;;
18997;SDS011;9632;51.018;4.284;2023-05-18T14:08:00;11.40;;;3.03;;
18997;SDS011;9632;51.018;4.284;2023-05-18T14:10:25;17.20;;;3.33;;
18997;SDS011;9632;51.018;4.284;2023-05-18T14:12:51;10.10;;;3.25;;
18997;SDS011;9632;51.018;4.284;2023-05-18T14:15:16;11.10;;;3.03;;
18997;SDS011;9632;51.018;4.284;2023-05-18T14:17:42;12.30;;;3.00;;
18997;SDS011;9632;51.018;4.284;2023-05-18T14:20:08;14.90;;;3.45;;
18997;SDS011;9632;51.018;4.284;2023-05-18T14:22:35;13.35;;;3.25;;
18997;SDS011;9632;51.018;4.284;2023-05-18T14:25:01;8.90;;;2.88;;
18997;SDS011;9632;51.018;4.284;2023-05-18T14:27:27;14.20;;;3.13;;
18997;SDS011;9632;51.018;4.284;2023-05-18T14:29:53;11.27;;;3.00;;
18997;SDS011;9632;51.018;4.284;2023-05-18T14:32:19;11.07;;;3.25;;
18997;SDS011;9632;51.018;4.284;2023-05-18T14:34:47;9.73;;;2.92;;
18997;SDS011;9632;51.018;4.284;2023-05-18T14:37:19;12.52;;;3.47;;
18997;SDS011;9632;51.018;4.284;2023-05-18T14:39:45;14.32;;;3.00;;
18997;SDS011;9632;51.018;4.284;2023-05-18T14:42:11;11.02;;;3.20;;
18997;SDS011;9632;51.018;4.284;2023-05-18T14:44:36;15.68;;;3.60;;
18997;SDS011;9632;51.018;4.284;2023-05-18T14:47:02;18.50;;;3.95;;
18997;SDS011;9632;51.018;4.284;2023-05-18T14:49:28;8.98;;;2.83;;
18997;SDS011;9632;51.018;4.284;2023-05-18T14:51:53;11.50;;;3.08;;
18997;SDS011;9632;51.018;4.284;2023-05-18T14:54:19;17.33;;;3.40;;
18997;SDS011;9632;51.018;4.284;2023-05-18T14:56:46;8.95;;;2.75;;
18997;SDS011;9632;51.018;4.284;2023-05-18T14:59:11;8.27;;;2.78;;
18997;SDS011;9632;51.018;4.284;2023-05-18T15:01:37;14.10;;;2.88;;
18997;SDS011;9632;51.018;4.284;2023-05-18T15:04:03;13.18;;;3.00;;
18997;SDS011;9632;51.018;4.284;2023-05-18T15:06:29;11.20;;;3.05;;
18997;SDS011;9632;51.018;4.284;2023-05-18T15:08:55;11.75;;;2.58;;
18997;SDS011;9632;51.018;4.284;2023-05-18T15:11:21;11.05;;;3.03;;
18997;SDS011;9632;51.018;4.284;2023-05-18T15:13:47;15.43;;;3.45;;
18997;SDS011;9632;51.018;4.284;2023-05-18T15:16:14;15.27;;;3.20;;
18997;SDS011;9632;51.018;4.284;2023-05-18T15:18:43;12.38;;;3.10;;